Time;durP1;ratioP1;P1;durP2;ratioP2;P2;SDS_P1;SDS_P2;PMS_P1;PMS_P2;Temp;Humidity;BMP_temperature;BMP_pressure;BME280_temperature;BME280_humidity;BME280_pressure;Samples;Min_cycle;Max_cycle;Signal;HPM_P1;HPM_P2
2024/01/17 00:01:44;;;;;;;66.80;33.30;;;;;;;-2.77;69.14;100497.48;123169;1099;104379;-78
2024/01/17 00:04:16;;;;;;;72.23;32.43;;;;;;;-2.77;69.33;100499.16;123104;1099;104230;-78
2024/01/17 00:06:47;;;;;;;75.45;33.40;;;;;;;-2.77;69.30;100500.05;123349;1099;104246;-78
2024/01/17 00:09:19;;;;;;;61.47;30.37;;;;;;;-2.79;68.29;100501.59;123547;1099;111575;-78
2024/01/17 00:11:51;;;;;;;58.93;26.73;;;;;;;-2.80;69.42;100512.62;123485;1099;104251;-77
2024/01/17 00:14:22;;;;;;;60.37;29.33;;;;;;;-2.78;69.19;100510.19;123554;1099;104223;-78
2024/01/17 00:16:55;;;;;;;52.90;24.97;;;;;;;-2.76;68.37;100511.22;123456;1099;104281;-77
2024/01/17 00:19:29;;;;;;;52.23;26.33;;;;;;;-2.76;68.74;100517.27;123172;1102;104508;-78
2024/01/17 00:22:01;;;;;;;58.47;27.60;;;;;;;-2.77;68.77;100515.46;123526;1099;104278;-77
2024/01/17 00:24:32;;;;;;;60.83;27.63;;;;;;;-2.76;69.64;100519.84;123159;1099;104367;-78
2024/01/17 00:27:04;;;;;;;54.00;26.17;;;;;;;-2.76;68.90;100522.41;123489;1099;104288;-77
2024/01/17 00:29:36;;;;;;;58.13;27.13;;;;;;;-2.75;68.60;100520.73;123013;1099;104376;-78
2024/01/17 00:32:07;;;;;;;53.77;27.10;;;;;;;-2.76;69.48;100518.92;123190;1099;104435;-77
2024/01/17 00:34:38;;;;;;;56.20;27.17;;;;;;;-2.76;68.45;100512.14;123486;1099;104714;-77
2024/01/17 00:37:10;;;;;;;62.40;30.95;;;;;;;-2.76;68.65;100512.14;123506;1099;104322;-78
2024/01/17 00:39:41;;;;;;;59.20;27.67;;;;;;;-2.78;68.49;100520.46;123539;1099;104428;-78
2024/01/17 00:42:12;;;;;;;63.10;30.10;;;;;;;-2.84;68.97;100525.05;123473;1099;104731;-78
2024/01/17 00:44:44;;;;;;;70.83;34.50;;;;;;;-2.93;68.80;100520.91;123171;1099;104268;-78
2024/01/17 00:47:15;;;;;;;68.50;33.93;;;;;;;-3.00;69.33;100522.79;123505;1099;104210;-78
2024/01/17 00:49:46;;;;;;;73.77;35.03;;;;;;;-3.04;69.41;100531.86;123479;1099;104239;-78
2024/01/17 00:52:17;;;;;;;73.45;34.65;;;;;;;-3.07;69.62;100535.08;123179;1099;104345;-79
2024/01/17 00:54:49;;;;;;;60.20;30.80;;;;;;;-3.09;69.11;100540.82;123491;1099;104306;-78
2024/01/17 00:57:20;;;;;;;66.10;31.13;;;;;;;-3.13;69.35;100537.09;123513;1099;104644;-78
2024/01/17 00:59:51;;;;;;;63.63;30.20;;;;;;;-3.10;69.82;100539.00;123456;1099;104281;-78
2024/01/17 01:02:22;;;;;;;61.30;29.57;;;;;;;-3.14;68.93;100539.52;123513;1099;104268;-78
2024/01/17 01:04:53;;;;;;;61.50;27.80;;;;;;;-3.18;68.48;100537.42;123630;1099;104389;-77
2024/01/17 01:07:25;;;;;;;56.93;26.57;;;;;;;-3.20;69.41;100529.58;123455;1099;104352;-78
2024/01/17 01:09:56;;;;;;;56.63;26.47;;;;;;;-3.20;69.26;100528.69;123509;1099;104297;-77
2024/01/17 01:12:27;;;;;;;59.20;26.60;;;;;;;-3.20;69.21;100514.18;123489;1099;104239;-78
2024/01/17 01:14:58;;;;;;;59.00;26.95;;;;;;;-3.19;69.85;100512.54;123474;1099;104367;-78
2024/01/17 01:17:29;;;;;;;53.90;25.23;;;;;;;-3.17;68.77;100513.56;123513;1099;104236;-77
2024/01/17 01:20:01;;;;;;;58.93;27.33;;;;;;;-3.12;70.01;100508.06;123096;1099;104351;-78
2024/01/17 01:22:35;;;;;;;56.27;26.40;;;;;;;-3.10;69.56;100505.63;123516;1099;104355;-78
2024/01/17 01:25:07;;;;;;;53.23;25.03;;;;;;;-3.13;68.93;100505.36;123464;1099;104344;-79
2024/01/17 01:27:38;;;;;;;52.10;24.43;;;;;;;-3.18;69.48;100509.19;123527;1099;104252;-78
2024/01/17 01:30:11;;;;;;;56.60;27.00;;;;;;;-3.27;69.43;100512.73;123442;1099;104271;-78
2024/01/17 01:32:42;;;;;;;58.47;27.63;;;;;;;-3.33;68.85;100521.55;123422;1098;104297;-78
2024/01/17 01:35:14;;;;;;;56.60;26.00;;;;;;;-3.41;68.91;100525.98;123437;1098;104355;-78
2024/01/17 01:37:45;;;;;;;57.43;27.20;;;;;;;-3.44;69.06;100525.70;123433;1099;104287;-78
2024/01/17 01:40:16;;;;;;;54.30;26.70;;;;;;;-3.41;69.15;100528.55;123432;1098;104268;-78
2024/01/17 01:42:48;;;;;;;53.70;25.10;;;;;;;-3.36;69.64;100531.53;123453;1099;104343;-78
2024/01/17 01:45:19;;;;;;;54.07;24.87;;;;;;;-3.37;69.70;100525.48;123426;1098;104277;-78
2024/01/17 01:47:51;;;;;;;48.40;23.97;;;;;;;-3.36;69.11;100524.73;123484;1099;104374;-78
2024/01/17 01:50:22;;;;;;;50.60;23.20;;;;;;;-3.37;69.08;100525.48;123463;1099;104341;-78
2024/01/17 01:52:53;;;;;;;49.37;21.87;;;;;;;-3.39;70.31;100523.56;123498;1099;104283;-78
2024/01/17 01:55:25;;;;;;;50.07;21.60;;;;;;;-3.38;70.08;100526.27;123144;1102;104393;-78
2024/01/17 01:57:56;;;;;;;46.87;20.93;;;;;;;-3.34;69.61;100523.19;123470;1099;104290;-78
2024/01/17 02:00:33;;;;;;;48.05;21.80;;;;;;;-3.31;69.66;100520.91;123499;1099;104178;-78
2024/01/17 02:03:04;;;;;;;47.88;22.52;;;;;;;-3.25;69.82;100518.89;123429;1099;104321;-79
2024/01/17 02:05:36;;;;;;;52.93;22.53;;;;;;;-3.16;69.55;100517.95;123482;1099;104297;-79
2024/01/17 02:08:08;;;;;;;58.63;27.03;;;;;;;-3.12;70.03;100509.73;123464;1099;104778;-78
2024/01/17 02:10:40;;;;;;;57.90;27.80;;;;;;;-3.09;70.02;100510.91;123114;1099;104293;-78
2024/01/17 02:13:14;;;;;;;54.63;26.77;;;;;;;-3.07;70.63;100511.05;123449;1099;104217;-78
2024/01/17 02:15:46;;;;;;;53.23;24.37;;;;;;;-3.07;70.45;100505.91;123157;1099;104348;-78
2024/01/17 02:18:17;;;;;;;52.33;25.97;;;;;;;-3.05;69.63;100517.23;123426;1099;104360;-78
2024/01/17 02:20:48;;;;;;;49.57;23.17;;;;;;;-3.06;70.61;100512.86;123572;1099;104422;-79
2024/01/17 02:23:27;;;;;;;61.37;26.83;;;;;;;-3.10;70.38;100511.69;123497;1098;104319;-78
2024/01/17 02:25:59;;;;;;;54.20;24.53;;;;;;;-3.11;69.60;100508.98;123519;1099;104650;-79
2024/01/17 02:28:32;;;;;;;53.03;25.00;;;;;;;-3.12;69.44;100510.63;123584;1099;104367;-78
2024/01/17 02:31:05;;;;;;;55.83;25.50;;;;;;;-3.16;70.22;100510.25;123620;1098;104304;-78
2024/01/17 02:33:36;;;;;;;53.53;24.10;;;;;;;-3.17;70.12;100508.44;123462;1099;104281;-78
2024/01/17 02:36:08;;;;;;;54.93;26.30;;;;;;;-3.19;69.54;100505.73;123402;1099;104274;-78
2024/01/17 02:38:40;;;;;;;60.27;30.33;;;;;;;-3.25;69.85;100510.31;123545;1099;104268;-78
2024/01/17 02:41:12;;;;;;;69.13;32.67;;;;;;;-3.27;70.47;100501.58;123074;1099;104334;-77
2024/01/17 02:43:43;;;;;;;64.60;33.73;;;;;;;-3.28;70.62;100510.03;123489;1099;104364;-78
2024/01/17 02:46:14;;;;;;;68.70;33.33;;;;;;;-3.27;69.64;100512.73;123496;1099;104313;-77
2024/01/17 02:48:45;;;;;;;71.67;35.87;;;;;;;-3.26;69.98;100511.06;123471;1099;104267;-78
2024/01/17 02:51:16;;;;;;;68.10;35.30;;;;;;;-3.28;70.41;100516.05;123446;1099;104358;-78
2024/01/17 02:53:47;;;;;;;73.50;36.17;;;;;;;-3.31;70.43;100513.20;123474;1099;104303;-78
2024/01/17 02:56:19;;;;;;;71.55;36.25;;;;;;;-3.34;70.76;100512.93;123489;1099;104267;-77
2024/01/17 02:58:50;;;;;;;66.90;33.73;;;;;;;-3.37;70.66;100520.34;123421;1099;104431;-78
2024/01/17 03:01:21;;;;;;;69.03;34.83;;;;;;;-3.41;69.65;100523.42;123462;1098;104491;-78
2024/01/17 03:03:52;;;;;;;77.13;37.73;;;;;;;-3.44;69.80;100515.44;123198;1099;104249;-79
2024/01/17 03:06:23;;;;;;;78.37;38.73;;;;;;;-3.44;70.65;100518.01;123539;1099;104699;-79
2024/01/17 03:08:55;;;;;;;75.50;38.93;;;;;;;-3.44;70.02;100523.14;123443;1099;104280;-78
2024/01/17 03:11:26;;;;;;;70.40;35.47;;;;;;;-3.42;70.56;100515.58;123155;1099;104459;-77
2024/01/17 03:13:57;;;;;;;70.30;35.40;;;;;;;-3.40;70.04;100514.94;123531;1099;104252;-77
2024/01/17 03:16:28;;;;;;;66.93;34.70;;;;;;;-3.40;70.81;100509.80;123445;1098;104405;-77
2024/01/17 03:18:59;;;;;;;64.87;33.43;;;;;;;-3.37;70.70;100509.19;123202;1099;104325;-78
2024/01/17 03:21:31;;;;;;;64.40;34.20;;;;;;;-3.34;70.66;100512.04;123108;1099;104166;-77
2024/01/17 03:24:02;;;;;;;68.67;33.70;;;;;;;-3.32;70.24;100519.13;123498;1099;104302;-78
2024/01/17 03:26:34;;;;;;;63.43;31.87;;;;;;;-3.30;70.16;100522.72;123448;1099;104321;-77
2024/01/17 03:29:05;;;;;;;65.97;32.47;;;;;;;-3.30;70.13;100525.29;123254;1102;104370;-77
2024/01/17 03:31:38;;;;;;;63.93;31.73;;;;;;;-3.30;70.42;100530.42;123517;1099;104370;-78
2024/01/17 03:34:09;;;;;;;67.97;33.87;;;;;;;-3.33;70.17;100525.01;123552;1099;104278;-77
2024/01/17 03:36:40;;;;;;;66.07;33.47;;;;;;;-3.41;70.37;100525.06;123656;1099;104172;-78
2024/01/17 03:39:12;;;;;;;65.00;36.10;;;;;;;-3.53;70.18;100527.42;123486;1099;104267;-78
2024/01/17 03:41:43;;;;;;;72.03;35.50;;;;;;;-3.59;70.35;100538.02;123715;1098;104357;-78
2024/01/17 03:44:14;;;;;;;71.60;35.70;;;;;;;-3.69;69.80;100538.84;123542;1099;104252;-78
2024/01/17 03:46:45;;;;;;;71.90;34.93;;;;;;;-3.72;70.60;100543.67;123445;1099;104229;-77
2024/01/17 03:49:17;;;;;;;75.10;37.73;;;;;;;-3.73;70.45;100536.73;123412;1098;104427;-78
2024/01/17 03:51:48;;;;;;;74.97;36.93;;;;;;;-3.70;70.92;100542.15;123410;1099;104300;-78
2024/01/17 03:54:19;;;;;;;74.37;36.17;;;;;;;-3.69;70.99;100536.27;123435;1098;104402;-78
2024/01/17 03:56:50;;;;;;;77.20;35.95;;;;;;;-3.70;70.88;100534.45;123491;1099;104239;-78
2024/01/17 03:59:21;;;;;;;72.70;35.03;;;;;;;-3.71;71.08;100544.56;123414;1099;104648;-78
2024/01/17 04:01:52;;;;;;;71.33;35.20;;;;;;;-3.77;70.48;100534.67;123471;1099;104238;-78
2024/01/17 04:04:23;;;;;;;69.80;36.50;;;;;;;-3.80;70.68;100526.69;123223;1099;104252;-78
2024/01/17 04:06:55;;;;;;;68.67;34.57;;;;;;;-3.80;70.78;100536.95;123500;1098;104299;-77
2024/01/17 04:09:26;;;;;;;70.17;37.43;;;;;;;-3.84;70.24;100539.97;123431;1099;104239;-78
2024/01/17 04:11:57;;;;;;;73.90;37.10;;;;;;;-3.84;70.62;100537.41;123184;1099;104626;-78
2024/01/17 04:14:28;;;;;;;81.95;42.10;;;;;;;-3.88;70.47;100541.36;123123;1099;104376;-78
2024/01/17 04:16:59;;;;;;;84.80;44.87;;;;;;;-3.90;70.98;100539.40;123602;1099;104335;-78
2024/01/17 04:19:32;;;;;;;74.80;40.07;;;;;;;-3.92;71.19;100543.49;123507;1099;104297;-78
2024/01/17 04:22:03;;;;;;;65.23;34.30;;;;;;;-4.00;70.69;100548.79;123520;1099;104350;-78
2024/01/17 04:24:35;;;;;;;66.50;34.83;;;;;;;-4.08;70.69;100553.94;123580;1099;104369;-78
2024/01/17 04:27:06;;;;;;;71.53;36.27;;;;;;;-4.14;71.01;100556.84;123567;1099;104251;-78
2024/01/17 04:29:38;;;;;;;68.23;35.33;;;;;;;-4.17;71.03;100556.56;123654;1099;104299;-78
2024/01/17 04:32:09;;;;;;;68.17;34.03;;;;;;;-4.22;70.57;100568.94;123765;1099;104284;-78
2024/01/17 04:34:41;;;;;;;66.50;34.27;;;;;;;-4.27;70.51;100571.80;123569;1098;112004;-78
2024/01/17 04:37:13;;;;;;;72.57;34.33;;;;;;;-4.32;71.05;100573.92;123150;1099;104341;-78
2024/01/17 04:39:44;;;;;;;66.07;34.07;;;;;;;-4.39;70.42;100575.01;123672;1099;104392;-78
2024/01/17 04:42:15;;;;;;;70.33;35.33;;;;;;;-4.44;70.43;100573.67;123286;1099;104297;-78
2024/01/17 04:44:49;;;;;;;74.67;35.37;;;;;;;-4.44;70.75;100573.67;123671;1099;104348;-78
2024/01/17 04:47:20;;;;;;;75.25;37.58;;;;;;;-4.46;70.59;100574.27;123729;1099;104380;-78
2024/01/17 04:49:51;;;;;;;71.53;35.57;;;;;;;-4.46;70.75;100579.39;123720;1099;104274;-78
2024/01/17 04:52:22;;;;;;;71.10;34.57;;;;;;;-4.51;70.72;100581.51;123777;1099;104243;-77
2024/01/17 04:54:55;;;;;;;72.30;35.97;;;;;;;-4.56;70.68;100582.73;123261;1099;104310;-78
2024/01/17 04:57:26;;;;;;;79.87;39.27;;;;;;;-4.58;70.46;100585.14;123318;1099;104299;-78
2024/01/17 04:59:57;;;;;;;86.97;43.23;;;;;;;-4.57;70.52;100580.92;123636;1099;104246;-78
2024/01/17 05:02:28;;;;;;;80.90;43.37;;;;;;;-4.55;70.97;100584.52;123688;1099;104290;-78
2024/01/17 05:04:59;;;;;;;76.60;39.60;;;;;;;-4.55;70.85;100588.00;123868;1099;104402;-78
2024/01/17 05:07:30;;;;;;;76.10;39.10;;;;;;;-4.53;71.12;100590.72;123943;1099;104242;-78
2024/01/17 05:10:02;;;;;;;82.17;40.43;;;;;;;-4.53;70.73;100596.73;123850;1099;104347;-77
2024/01/17 05:12:35;;;;;;;75.57;39.40;;;;;;;-4.54;71.13;100600.03;123381;1099;104418;-78
2024/01/17 05:15:07;;;;;;;83.70;41.37;;;;;;;-4.55;70.76;100608.50;123834;1099;104242;-78
2024/01/17 05:17:38;;;;;;;78.33;41.17;;;;;;;-4.57;70.79;100607.42;123907;1099;104339;-78
2024/01/17 05:20:13;;;;;;;78.37;39.03;;;;;;;-4.57;70.91;100616.77;123432;1099;104320;-78
2024/01/17 05:22:44;;;;;;;77.13;39.40;;;;;;;-4.58;70.77;100617.52;123557;1099;104703;-78
2024/01/17 05:25:17;;;;;;;81.47;40.23;;;;;;;-4.60;70.96;100626.72;123558;1099;104274;-78
2024/01/17 05:27:51;;;;;;;76.65;41.00;;;;;;;-4.66;70.48;100633.80;123446;1099;104296;-78
2024/01/17 05:30:24;;;;;;;79.77;41.50;;;;;;;-4.70;70.51;100636.06;123492;1099;104698;-77
2024/01/17 05:32:56;;;;;;;85.23;40.10;;;;;;;-4.70;70.88;100637.73;123517;1099;104300;-77
2024/01/17 05:35:28;;;;;;;74.50;38.03;;;;;;;-4.70;70.82;100643.73;123686;1099;104246;-78
2024/01/17 05:37:59;;;;;;;70.47;35.13;;;;;;;-4.75;70.84;100657.76;123535;1099;104315;-77
2024/01/17 05:40:31;;;;;;;69.80;34.20;;;;;;;-4.83;70.83;100662.86;123573;1099;104226;-78
2024/01/17 05:43:02;;;;;;;67.10;32.63;;;;;;;-4.96;70.34;100661.64;123582;1099;104363;-78
2024/01/17 05:45:33;;;;;;;65.40;33.00;;;;;;;-5.03;70.36;100663.44;123515;1102;104309;-78
2024/01/17 05:48:05;;;;;;;65.40;33.90;;;;;;;-5.11;71.19;100667.78;123684;1099;104345;-78
2024/01/17 05:50:36;;;;;;;70.80;36.73;;;;;;;-5.14;70.56;100670.04;123622;1099;104293;-78
2024/01/17 05:53:07;;;;;;;68.67;35.80;;;;;;;-5.14;71.16;100660.73;123734;1099;104350;-78
2024/01/17 05:55:38;;;;;;;61.60;33.60;;;;;;;-5.11;70.32;100658.48;123679;1099;104229;-78
2024/01/17 05:58:10;;;;;;;72.37;35.20;;;;;;;-5.09;70.67;100666.31;123588;1099;104380;-78
2024/01/17 06:00:41;;;;;;;70.77;35.90;;;;;;;-5.04;70.80;100675.34;123854;1099;104325;-78
2024/01/17 06:03:13;;;;;;;70.67;37.40;;;;;;;-4.99;70.91;100668.13;123492;1102;104354;-78
2024/01/17 06:05:45;;;;;;;70.70;37.23;;;;;;;-4.95;71.29;100668.58;123737;1099;104222;-78
2024/01/17 06:08:16;;;;;;;79.10;38.60;;;;;;;-4.91;71.08;100669.78;123975;1099;104238;-78
2024/01/17 06:10:47;;;;;;;74.60;38.70;;;;;;;-4.85;71.27;100677.17;123925;1099;104338;-78
2024/01/17 06:13:20;;;;;;;75.53;37.93;;;;;;;-4.79;71.18;100680.34;123868;1099;104211;-78
2024/01/17 06:15:51;;;;;;;70.23;36.13;;;;;;;-4.75;71.07;100693.60;124144;1099;104277;-78
2024/01/17 06:18:23;;;;;;;72.20;36.97;;;;;;;-4.68;71.10;100696.77;124114;1102;104306;-78
2024/01/17 06:20:55;;;;;;;69.53;36.13;;;;;;;-4.62;71.20;100699.94;124414;1099;104252;-78
2024/01/17 06:23:27;;;;;;;71.73;35.27;;;;;;;-4.64;70.89;100701.42;124764;1098;102017;-76
2024/01/17 06:25:58;;;;;;;71.50;35.67;;;;;;;-4.66;70.95;100701.27;124348;1098;105701;-78
2024/01/17 06:28:29;;;;;;;63.90;34.17;;;;;;;-4.64;71.30;100701.42;124396;1099;104725;-76
2024/01/17 06:31:00;;;;;;;68.20;34.50;;;;;;;-4.66;70.84;100701.27;124601;1099;104293;-77
2024/01/17 06:33:31;;;;;;;64.77;32.83;;;;;;;-4.64;70.81;100707.47;124502;1099;104360;-77
2024/01/17 06:36:03;;;;;;;62.57;31.70;;;;;;;-4.61;70.57;100706.84;124534;1099;104201;-77
2024/01/17 06:38:34;;;;;;;67.40;32.87;;;;;;;-4.56;71.10;100705.67;124483;1098;104319;-77
2024/01/17 06:41:06;;;;;;;63.63;31.87;;;;;;;-4.46;70.87;100695.55;124840;1099;102150;-77
2024/01/17 06:43:37;;;;;;;63.77;31.33;;;;;;;-4.36;70.98;100694.82;124944;1099;104277;-77
2024/01/17 06:46:08;;;;;;;68.03;32.50;;;;;;;-4.25;70.30;100698.43;124583;1099;104223;-77
2024/01/17 06:48:40;;;;;;;69.33;35.50;;;;;;;-4.13;70.61;100696.13;124709;1099;104165;-77
2024/01/17 06:51:11;;;;;;;77.87;38.57;;;;;;;-3.97;71.08;100697.77;124888;1099;104242;-77
2024/01/17 06:53:42;;;;;;;74.73;37.30;;;;;;;-3.74;71.66;100706.77;124946;1099;104341;-77
2024/01/17 06:56:14;;;;;;;80.07;38.33;;;;;;;-3.56;71.09;100710.17;124803;1099;104268;-77
2024/01/17 06:58:45;;;;;;;78.20;37.70;;;;;;;-3.50;71.54;100712.42;124416;1099;104344;-78
2024/01/17 07:01:16;;;;;;;72.93;35.87;;;;;;;-3.44;70.76;100713.89;124761;1099;104265;-77
2024/01/17 07:03:47;;;;;;;69.80;34.17;;;;;;;-3.42;71.57;100720.84;124668;1099;104239;-77
2024/01/17 07:06:19;;;;;;;68.87;34.53;;;;;;;-3.45;70.75;100718.87;124416;1099;104185;-77
2024/01/17 07:08:50;;;;;;;68.17;34.03;;;;;;;-3.44;71.29;100718.13;125270;1098;104274;-77
2024/01/17 07:11:21;;;;;;;71.73;35.07;;;;;;;-3.39;71.32;100713.44;124924;1098;104306;-77
2024/01/17 07:13:55;;;;;;;73.92;37.03;;;;;;;-3.28;72.02;100716.23;124867;1099;104188;-77
2024/01/17 07:16:43;;;;;;;72.43;36.10;;;;;;;-3.14;71.18;100714.96;125031;1099;104339;-77
2024/01/17 07:19:16;;;;;;;70.37;35.50;;;;;;;-2.99;72.37;100710.36;124439;1102;104315;-77
2024/01/17 07:21:47;;;;;;;83.83;39.73;;;;;;;-2.86;71.58;100703.80;124624;1101;104163;-78
2024/01/17 07:24:18;;;;;;;73.80;35.53;;;;;;;-2.77;72.18;100700.39;124842;1099;104248;-77
2024/01/17 07:26:50;;;;;;;69.87;34.90;;;;;;;-2.75;71.45;100703.10;125122;1098;104695;-77
2024/01/17 07:29:40;;;;;;;77.50;37.07;;;;;;;-2.68;72.05;100701.98;124972;1099;104203;-77
2024/01/17 07:32:13;;;;;;;83.70;42.10;;;;;;;-2.57;72.22;100688.44;125240;1099;104143;-77
2024/01/17 07:34:52;;;;;;;100.50;50.60;;;;;;;-2.52;71.99;100687.22;125258;1099;104239;-77
2024/01/17 07:37:24;;;;;;;124.23;63.33;;;;;;;-2.50;71.97;100679.64;124995;1099;101912;-77
2024/01/17 07:39:55;;;;;;;122.17;65.70;;;;;;;-2.47;71.84;100667.08;125144;1099;104176;-77
2024/01/17 07:42:27;;;;;;;123.50;68.93;;;;;;;-2.44;71.84;100672.48;124998;1099;104169;-77
2024/01/17 07:44:59;;;;;;;114.27;62.03;;;;;;;-2.35;71.55;100673.32;124870;1099;104265;-77
2024/01/17 07:47:31;;;;;;;118.23;62.63;;;;;;;-2.33;71.91;100666.64;125279;1099;104268;-77
2024/01/17 07:50:09;;;;;;;112.67;63.87;;;;;;;-2.29;70.71;100660.09;124563;1099;104300;-78
2024/01/17 07:52:41;;;;;;;109.97;61.23;;;;;;;-2.22;71.65;100671.06;126211;1099;102806;-77
2024/01/17 07:55:12;;;;;;;111.83;58.90;;;;;;;-2.12;71.65;100669.30;126745;1099;102305;-77
2024/01/17 07:57:44;;;;;;;105.23;58.53;;;;;;;-2.02;71.77;100677.97;126145;1099;101919;-77
2024/01/17 08:00:20;;;;;;;110.67;60.00;;;;;;;-1.91;72.20;100678.92;126759;1099;101793;-78
2024/01/17 08:02:51;;;;;;;112.30;58.60;;;;;;;-1.78;71.65;100669.70;126122;1099;103531;-77
2024/01/17 08:05:23;;;;;;;115.70;61.33;;;;;;;-1.69;72.04;100663.68;126210;1098;102429;-77
2024/01/17 08:07:58;;;;;;;113.10;59.77;;;;;;;-1.54;71.65;100670.92;126246;1099;102149;-77
2024/01/17 08:10:30;;;;;;;106.55;59.15;;;;;;;-1.42;72.22;100673.66;125292;1097;104293;-77
2024/01/17 08:13:01;;;;;;;113.63;63.60;;;;;;;-1.30;72.00;100669.56;124370;1102;102362;-77
2024/01/17 08:15:35;;;;;;;112.17;60.93;;;;;;;-1.15;71.85;100665.72;124738;1100;102347;-76
2024/01/17 08:18:23;;;;;;;108.12;56.08;;;;;;;-0.94;72.29;100663.14;125356;1099;104076;-78
2024/01/17 08:21:25;;;;;;;100.17;51.27;;;;;;;-0.73;72.63;100661.47;125008;1099;104198;-77
2024/01/17 08:24:05;;;;;;;93.07;50.00;;;;;;;-0.60;71.52;100664.27;125256;1099;104275;-77
2024/01/17 08:26:41;;;;;;;87.83;48.47;;;;;;;-0.48;72.06;100661.81;124943;1102;104329;-77
2024/01/17 08:29:16;;;;;;;77.20;39.75;;;;;;;-0.32;71.53;100657.91;124479;1102;101992;-76
2024/01/17 08:31:50;;;;;;;77.47;39.47;;;;;;;-0.21;72.03;100670.00;124922;1099;104278;-77
2024/01/17 08:34:26;;;;;;;70.17;36.37;;;;;;;-0.10;71.18;100666.59;124882;1099;104222;-77
2024/01/17 08:37:01;;;;;;;65.10;34.43;;;;;;;0.08;72.40;100666.27;124943;1099;104226;-77
2024/01/17 08:39:35;;;;;;;61.43;31.67;;;;;;;0.21;71.72;100668.17;124290;1099;104402;-77
2024/01/17 08:42:19;;;;;;;59.80;32.03;;;;;;;0.31;71.57;100665.52;125771;1098;104261;-77
2024/01/17 08:44:54;;;;;;;59.42;30.80;;;;;;;0.40;71.23;100667.94;124736;1099;104156;-77
2024/01/17 08:47:28;;;;;;;55.27;29.27;;;;;;;0.49;71.41;100659.23;124807;1099;104292;-77
2024/01/17 08:50:00;;;;;;;;;;;;;;;0.57;69.85;100658.94;124739;1098;111646;-77
2024/01/17 08:52:33;;;;;;;53.60;26.40;;;;;;;0.62;71.19;100653.33;124763;1098;104181;-76
2024/01/17 08:55:12;;;;;;;56.73;28.02;;;;;;;0.75;71.46;100655.20;124617;1102;104306;-77
2024/01/17 08:57:48;;;;;;;55.87;27.40;;;;;;;0.86;71.74;100649.17;125279;1099;103947;-77
2024/01/17 09:00:22;;;;;;;49.65;24.02;;;;;;;0.98;71.29;100637.95;125000;1099;103352;-77
2024/01/17 09:03:01;;;;;;;58.50;28.07;;;;;;;1.10;71.55;100643.17;124697;1099;104254;-77
2024/01/17 09:05:33;;;;;;;50.60;26.80;;;;;;;1.22;72.21;100638.92;125248;1099;104242;-76
2024/01/17 09:08:05;;;;;;;54.07;25.90;;;;;;;1.33;71.70;100631.98;125197;1099;104210;-77
2024/01/17 09:10:37;;;;;;;51.17;27.17;;;;;;;1.43;71.42;100635.36;125948;1098;107104;-77
2024/01/17 09:13:09;;;;;;;51.53;25.93;;;;;;;1.50;71.01;100628.06;125572;1099;102343;-77
2024/01/17 09:15:45;;;;;;;59.80;28.43;;;;;;;1.56;70.56;100623.34;125122;1099;103879;-77
2024/01/17 09:18:20;;;;;;;54.77;27.77;;;;;;;1.62;71.24;100621.17;125151;1100;104245;-77
2024/01/17 09:20:52;;;;;;;58.02;28.85;;;;;;;1.74;71.44;100616.00;125345;1099;118492;-77
2024/01/17 09:23:24;;;;;;;55.57;28.20;;;;;;;1.86;71.55;100608.25;125541;1099;102430;-78
2024/01/17 09:25:55;;;;;;;53.90;27.63;;;;;;;1.94;71.89;100604.51;124709;1099;104361;-76
2024/01/17 09:28:26;;;;;;;53.90;27.67;;;;;;;2.01;71.30;100604.17;125276;1098;104272;-77
2024/01/17 09:30:58;;;;;;;53.37;27.27;;;;;;;2.12;71.49;100603.23;125121;1098;104195;-77
2024/01/17 09:33:29;;;;;;;55.23;25.60;;;;;;;2.24;71.74;100604.89;124916;1099;104309;-77
2024/01/17 09:36:00;;;;;;;46.00;23.07;;;;;;;2.28;71.31;100597.44;125092;1099;104360;-77
2024/01/17 09:38:31;;;;;;;45.33;22.30;;;;;;;2.32;71.18;100603.73;125049;1099;104169;-76
2024/01/17 09:41:03;;;;;;;44.00;22.00;;;;;;;2.39;71.65;100600.79;125068;1099;104227;-77
2024/01/17 09:43:34;;;;;;;45.67;21.17;;;;;;;2.44;69.34;100593.34;124858;1099;102125;-77
2024/01/17 09:46:12;;;;;;;44.77;20.97;;;;;;;2.35;69.77;100572.87;124485;1099;104227;-77
2024/01/17 09:48:43;;;;;;;43.03;21.13;;;;;;;2.47;70.72;100593.55;124950;1099;104281;-77
2024/01/17 09:51:17;;;;;;;42.87;21.23;;;;;;;2.50;70.40;100593.77;124707;1099;104310;-78
2024/01/17 09:53:53;;;;;;;45.45;21.65;;;;;;;2.54;70.27;100588.02;124643;1099;104322;-77
2024/01/17 09:56:25;;;;;;;39.47;21.17;;;;;;;2.61;70.60;100590.22;124805;1099;104300;-76
2024/01/17 09:58:57;;;;;;;43.73;20.67;;;;;;;2.71;70.54;100596.92;124373;1102;104369;-77
2024/01/17 10:01:30;;;;;;;40.30;20.20;;;;;;;2.73;70.54;100584.06;124800;1099;109168;-76
2024/01/17 10:04:03;;;;;;;40.73;20.03;;;;;;;2.79;70.37;100585.41;124388;1099;104181;-77
2024/01/17 10:06:39;;;;;;;34.77;17.73;;;;;;;2.88;70.87;100570.48;126520;1099;102189;-77
2024/01/17 10:09:13;;;;;;;25.23;11.63;;;;;;;2.92;70.55;100568.98;126918;1098;101470;-76
2024/01/17 10:11:44;;;;;;;24.13;11.00;;;;;;;2.99;70.63;100570.28;126622;1098;119045;-76
2024/01/17 10:14:17;;;;;;;23.23;9.43;;;;;;;3.00;69.66;100569.50;126280;1099;101888;-76
2024/01/17 10:16:49;;;;;;;19.83;9.00;;;;;;;3.05;70.39;100571.62;125589;1098;104201;-77
2024/01/17 10:19:24;;;;;;;19.20;9.40;;;;;;;3.10;69.71;100574.52;124639;1099;104226;-76
2024/01/17 10:22:02;;;;;;;21.93;9.37;;;;;;;3.10;69.83;100561.55;124916;1098;104240;-77
2024/01/17 10:24:38;;;;;;;21.27;9.23;;;;;;;3.14;69.40;100563.53;124731;1099;104289;-77
2024/01/17 10:27:19;;;;;;;19.23;8.23;;;;;;;3.14;67.92;100560.94;125039;1099;104226;-76
2024/01/17 10:29:53;;;;;;;20.37;8.77;;;;;;;3.12;68.40;100557.36;124900;1098;104163;-76
2024/01/17 10:32:25;;;;;;;21.47;8.73;;;;;;;3.12;68.64;100554.77;124684;1099;110984;-76
2024/01/17 10:35:04;;;;;;;21.73;8.83;;;;;;;3.17;68.91;100558.55;124286;1099;104283;-76
2024/01/17 10:38:09;;;;;;;18.77;8.17;;;;;;;3.21;69.31;100552.78;124361;1100;104192;-76
2024/01/17 10:40:43;;;;;;;16.15;7.40;;;;;;;3.24;69.02;100547.80;125022;1099;104168;-76
2024/01/17 10:43:14;;;;;;;19.20;8.07;;;;;;;3.24;68.21;100549.47;124743;1099;104281;-76
2024/01/17 10:45:45;;;;;;;18.83;8.10;;;;;;;3.24;68.21;100540.02;124979;1099;104189;-76
2024/01/17 10:48:17;;;;;;;18.57;8.60;;;;;;;3.22;68.25;100541.59;125233;1099;104325;-76
2024/01/17 10:50:59;;;;;;;18.07;8.27;;;;;;;3.21;67.80;100532.03;125197;1099;103838;-76
2024/01/17 10:53:32;;;;;;;20.43;7.87;;;;;;;3.22;68.29;100531.22;124530;1099;104792;-76
2024/01/17 10:56:05;;;;;;;17.23;7.60;;;;;;;3.16;67.03;100530.81;124455;1102;104255;-76
2024/01/17 10:58:37;;;;;;;17.53;7.80;;;;;;;3.14;67.99;100524.64;124834;1099;104294;-76
2024/01/17 11:01:15;;;;;;;18.37;7.67;;;;;;;3.16;67.88;100510.06;124571;1099;104179;-76
2024/01/17 11:03:53;;;;;;;17.23;7.67;;;;;;;3.19;66.92;100506.79;124743;1099;104389;-76
2024/01/17 11:06:26;;;;;;;19.17;8.57;;;;;;;3.20;67.33;100509.48;124482;1099;104655;-76
2024/01/17 11:08:59;;;;;;;16.70;7.53;;;;;;;3.20;67.78;100496.52;124996;1099;104428;-76
2024/01/17 11:11:31;;;;;;;16.93;7.37;;;;;;;3.21;67.42;100495.73;124722;1099;104390;-76
2024/01/17 11:14:04;;;;;;;15.80;6.83;;;;;;;3.22;66.87;100487.13;124987;1099;102847;-76
2024/01/17 11:16:39;;;;;;;18.17;7.65;;;;;;;3.27;67.06;100487.42;124931;1098;102981;-76
2024/01/17 11:19:12;;;;;;;15.70;6.87;;;;;;;3.31;67.52;100491.14;124978;1099;104309;-76
2024/01/17 11:21:43;;;;;;;15.73;6.43;;;;;;;3.31;67.64;100481.66;124918;1099;104176;-76